Aérodrome :
LOGIN :

S'inscrire | Disclaimer

   EN    FR    IT 

 










Légende :    VFR   VFR Marginal   IFR   IFR Intensif   IFR Très Intensif
Visi : 
Plafond : 
>= 8 km
>= 3000ft
5 à 8 km
1000 à 3000 ft
1500m à 5 km
500 à 1000 ft
800 à 1500m
200 à 500 ft
< 800m
< 200 ft
Symboles :   Orages  Brouillard  Fortes neiges  Fortes précipitations  Vent > 20 kt
SIGMETs :   Divers  Orages  Givrage  Turbulence  Onde Orograph.  Cendres Volcan.







- Altitude de l'aérodrome : 427 ft
- Code IATA : CIA


LIRA - Roma Ciampino

DERNIER METAR :
  • 270250Z VRB02KT CAVOK 20/16 Q1018

METARs EXPIRÉS :
  • 270120Z 01002KT CAVOK 20/16 Q1017
  • 262350Z 02003KT CAVOK 20/16 Q1018

TAF TAF LIRA
Valide du 27 à 00h jusqu'au 28 à 00h UTC


262300Z 2700/2724 VRB05KT 9999 SCT030
TEMPO 2700/2705 4000 BR
BECMG 2710/2712 24010KT
TEMPO 2712/2716 4000 SHRA
BECMG 2716/2718 VRB05KT
Pas de NOTAMs connus pour ce terrain.
1 SIGMET publié pour la FIR Roma (LIRR) :
 
Turbulence forte
LIRR SIGMET 6 VALID 270000/270400 LIIB
LIRR ROMA FIR SEV TURB FCST N OF LINE N4127 E00927 - N3852 E01723 FL290/410 MOV NE NC=



MET'MAP, la Météo Aéronautique d'un coup d'oeil ! - Copyright ORBIFLY Décembre 2007 - Disclaimer

ORBIFLY MET'MAP TEAM :

Programmation & Développement : Alexandra Zaïnal
Conception & Développement : Baudouin d'Aumeries
Co-Programmation & Développement : Marc-Olivier Méhu
Soutien technique & logistique : Manuel Goepfert

Contact : metmap@orbifly.com




SOURCES & CREDITS :

   NOAA